Time;durP1;ratioP1;P1;durP2;ratioP2;P2;SDS_P1;SDS_P2;PMS_P1;PMS_P2;Temp;Humidity;BMP_temperature;BMP_pressure;BME280_temperature;BME280_humidity;BME280_pressure;Samples;Min_cycle;Max_cycle;Signal;HPM_P1;HPM_P2
2021/11/22 00:01:25;;;;;;;4.97;2.70;;;6.60;98.30;;;;;;4195840;28;20955;-80
2021/11/22 00:03:30;;;;;;;3.80;2.60;;;6.50;98.30;;;;;;4204031;28;20518;-80
2021/11/22 00:05:33;;;;;;;3.90;3.07;;;6.50;98.30;;;;;;4197015;28;20455;-80
2021/11/22 00:07:36;;;;;;;4.00;2.60;;;6.50;98.30;;;;;;4210066;28;20806;-80
2021/11/22 00:09:40;;;;;;;4.77;2.43;;;6.50;98.30;;;;;;4201049;28;20487;-80
2021/11/22 00:11:44;;;;;;;2.50;2.30;;;6.50;98.30;;;;;;4201275;28;20469;-80
2021/11/22 00:13:47;;;;;;;3.83;2.70;;;6.50;98.30;;;;;;4197730;28;20476;-80
2021/11/22 00:15:51;;;;;;;4.40;2.60;;;6.40;98.30;;;;;;4203058;28;20470;-80
2021/11/22 00:17:54;;;;;;;2.67;2.30;;;6.40;98.30;;;;;;4204641;28;20533;-80
2021/11/22 00:19:58;;;;;;;3.17;2.77;;;6.40;98.30;;;;;;4196863;28;20494;-80
2021/11/22 00:22:02;;;;;;;3.30;2.50;;;6.40;98.30;;;;;;4206212;28;20639;-80
2021/11/22 00:24:05;;;;;;;3.00;2.23;;;6.40;98.30;;;;;;4199113;28;20461;-80
2021/11/22 00:26:08;;;;;;;3.50;2.43;;;6.50;98.30;;;;;;4198382;28;20471;-80
2021/11/22 00:28:13;;;;;;;3.57;2.53;;;6.40;98.30;;;;;;4204067;28;20468;-79
2021/11/22 00:30:16;;;;;;;2.50;2.30;;;6.40;98.30;;;;;;4202366;28;20465;-80
2021/11/22 00:32:19;;;;;;;5.43;2.80;;;6.40;98.30;;;;;;4197740;28;20916;-80
2021/11/22 00:34:22;;;;;;;2.87;2.40;;;6.40;98.30;;;;;;4199455;28;20449;-80
2021/11/22 00:36:25;;;;;;;3.50;2.10;;;6.40;98.30;;;;;;4199211;28;20969;-80
2021/11/22 00:38:28;;;;;;;2.40;2.20;;;6.40;98.30;;;;;;4196220;28;20488;-80
2021/11/22 00:40:31;;;;;;;3.27;2.07;;;6.40;98.30;;;;;;4203617;28;20518;-80
2021/11/22 00:42:34;;;;;;;3.23;2.40;;;6.40;98.30;;;;;;4200759;28;20463;-80
2021/11/22 00:44:39;;;;;;;2.93;2.07;;;6.40;98.30;;;;;;4193638;28;20490;-80
2021/11/22 00:46:42;;;;;;;2.87;2.30;;;6.40;98.30;;;;;;4197986;28;20967;-80
2021/11/22 00:48:45;;;;;;;2.43;2.00;;;6.30;98.30;;;;;;4197847;28;20502;-80
2021/11/22 00:50:49;;;;;;;3.13;2.00;;;6.30;98.30;;;;;;4196902;28;20468;-79
2021/11/22 00:52:52;;;;;;;2.63;2.20;;;6.30;98.30;;;;;;4207120;28;20475;-80
2021/11/22 00:54:55;;;;;;;3.47;2.27;;;6.30;98.30;;;;;;4207195;28;20471;-80
2021/11/22 00:56:58;;;;;;;3.80;2.60;;;6.30;98.30;;;;;;4203437;28;20479;-80
2021/11/22 00:59:01;;;;;;;3.00;1.90;;;6.20;98.30;;;;;;4206551;28;20608;-80
2021/11/22 01:01:06;;;;;;;2.97;2.20;;;6.20;98.30;;;;;;4196948;28;20477;-80
2021/11/22 01:03:09;;;;;;;3.20;2.07;;;6.10;98.30;;;;;;4206071;28;20537;-80
2021/11/22 01:05:12;;;;;;;2.80;2.40;;;6.10;98.30;;;;;;4201524;28;20491;-80
2021/11/22 01:07:15;;;;;;;2.40;2.20;;;6.00;98.30;;;;;;4206288;28;20450;-80
2021/11/22 01:09:18;;;;;;;3.40;2.60;;;6.00;98.30;;;;;;4204967;28;20492;-80
2021/11/22 01:11:21;;;;;;;2.30;2.10;;;6.00;98.30;;;;;;4201556;28;20475;-80
2021/11/22 01:13:24;;;;;;;5.30;2.70;;;6.00;98.30;;;;;;4206179;28;20568;-80
2021/11/22 01:15:27;;;;;;;3.60;2.47;;;6.00;98.30;;;;;;4197760;28;21022;-79
2021/11/22 01:17:31;;;;;;;2.70;2.50;;;5.90;98.30;;;;;;4201906;28;20464;-80
2021/11/22 01:19:34;;;;;;;3.20;2.47;;;5.90;98.30;;;;;;4205848;28;20575;-80
2021/11/22 01:21:37;;;;;;;2.73;2.47;;;5.90;98.30;;;;;;4199749;28;20468;-80
2021/11/22 01:23:40;;;;;;;3.70;2.50;;;5.90;98.30;;;;;;4205972;28;20465;-80
2021/11/22 01:25:45;;;;;;;2.70;2.40;;;5.90;98.30;;;;;;4202252;28;20445;-80
2021/11/22 01:27:48;;;;;;;2.70;2.33;;;5.90;98.30;;;;;;4205865;28;20463;-79
2021/11/22 01:29:51;;;;;;;3.23;2.20;;;5.90;98.30;;;;;;4207767;28;20495;-80
2021/11/22 01:31:54;;;;;;;3.10;2.43;;;6.00;98.30;;;;;;4205870;28;20475;-79
2021/11/22 01:33:58;;;;;;;3.53;2.80;;;6.00;98.30;;;;;;4206576;28;21055;-80
2021/11/22 01:36:01;;;;;;;3.23;2.47;;;5.90;98.30;;;;;;4206040;28;20473;-80
2021/11/22 01:38:06;;;;;;;2.97;2.50;;;5.90;98.30;;;;;;4203662;28;20457;-80
2021/11/22 01:40:12;;;;;;;4.90;2.20;;;5.80;98.30;;;;;;4200753;28;20471;-80
2021/11/22 01:42:15;;;;;;;4.93;2.50;;;5.80;98.30;;;;;;4211117;28;20447;-80
2021/11/22 01:44:18;;;;;;;3.60;2.60;;;5.80;98.30;;;;;;4198632;28;20498;-80
2021/11/22 01:46:22;;;;;;;4.10;2.30;;;5.80;98.30;;;;;;4205939;28;20833;-80
2021/11/22 01:48:26;;;;;;;3.30;2.53;;;5.80;98.30;;;;;;4197438;28;20472;-80
2021/11/22 01:50:31;;;;;;;2.80;2.60;;;5.80;98.30;;;;;;4213868;28;20936;-80
2021/11/22 01:52:34;;;;;;;3.40;2.50;;;5.70;98.30;;;;;;4198601;28;20466;-80
2021/11/22 01:54:37;;;;;;;3.53;2.60;;;5.70;98.30;;;;;;4202591;28;20456;-80
2021/11/22 01:56:40;;;;;;;2.60;2.40;;;5.70;98.30;;;;;;4199175;28;20472;-80
2021/11/22 01:58:43;;;;;;;4.27;2.57;;;5.70;98.30;;;;;;4205898;28;20490;-80
2021/11/22 02:00:48;;;;;;;2.80;2.60;;;5.70;98.30;;;;;;4205907;28;20610;-80
2021/11/22 02:02:52;;;;;;;3.87;2.90;;;5.70;98.30;;;;;;4201619;28;20463;-80
2021/11/22 02:04:55;;;;;;;3.70;2.70;;;5.60;98.30;;;;;;4209963;28;20494;-79
2021/11/22 02:06:59;;;;;;;4.50;2.90;;;5.60;98.30;;;;;;4188936;28;20472;-80
2021/11/22 02:09:05;;;;;;;4.23;2.27;;;5.60;98.30;;;;;;4202482;28;20482;-80
2021/11/22 02:11:08;;;;;;;3.30;2.40;;;5.60;98.30;;;;;;4208351;28;20474;-80
2021/11/22 02:13:11;;;;;;;2.70;2.50;;;5.70;98.30;;;;;;4205192;28;20469;-80
2021/11/22 02:15:14;;;;;;;4.00;2.47;;;5.70;98.30;;;;;;4199114;28;20476;-80
2021/11/22 02:17:17;;;;;;;4.37;2.77;;;5.60;98.30;;;;;;4189230;28;20473;-80
2021/11/22 02:19:20;;;;;;;3.37;2.60;;;5.70;98.30;;;;;;4182840;28;20484;-80
2021/11/22 02:21:25;;;;;;;4.30;2.40;;;5.60;98.30;;;;;;4204914;28;20468;-80
2021/11/22 02:23:28;;;;;;;3.13;2.80;;;5.60;98.30;;;;;;4208361;28;21029;-79
2021/11/22 02:25:32;;;;;;;3.40;2.77;;;5.60;98.30;;;;;;4205932;28;20919;-80
2021/11/22 02:27:37;;;;;;;5.33;2.63;;;5.60;98.30;;;;;;4198546;28;20483;-79
2021/11/22 02:29:40;;;;;;;3.57;2.53;;;5.60;98.30;;;;;;4204914;28;20491;-80
2021/11/22 02:31:43;;;;;;;4.93;2.60;;;5.60;98.30;;;;;;4203997;28;20479;-81
2021/11/22 02:33:46;;;;;;;3.70;2.80;;;5.60;98.30;;;;;;4199196;28;20467;-80
2021/11/22 02:35:51;;;;;;;3.00;2.70;;;5.50;98.30;;;;;;4198307;28;20466;-79
2021/11/22 02:38:01;;;;;;;3.37;2.30;;;5.50;98.30;;;;;;4205383;28;20947;-79
2021/11/22 02:40:06;;;;;;;4.83;2.80;;;5.40;98.30;;;;;;4204778;28;20470;-79
2021/11/22 02:42:13;;;;;;;3.07;2.60;;;5.40;98.30;;;;;;4205383;28;20940;-79
2021/11/22 02:44:16;;;;;;;3.77;2.67;;;5.40;98.30;;;;;;4204600;28;20650;-80
2021/11/22 02:46:19;;;;;;;4.53;2.73;;;5.40;98.30;;;;;;4198452;28;20668;-80
2021/11/22 02:48:22;;;;;;;3.47;2.70;;;5.40;98.30;;;;;;4210595;28;21042;-80
2021/11/22 02:50:25;;;;;;;2.73;2.53;;;5.30;98.30;;;;;;4205069;28;20955;-80
2021/11/22 02:52:28;;;;;;;2.93;2.50;;;5.30;98.30;;;;;;4205460;28;20475;-80
2021/11/22 02:54:32;;;;;;;3.20;2.57;;;5.30;98.30;;;;;;4202446;28;20459;-80
2021/11/22 02:56:36;;;;;;;3.63;2.67;;;5.30;98.30;;;;;;4198987;28;20441;-80
2021/11/22 02:58:41;;;;;;;5.20;3.10;;;5.20;98.30;;;;;;4203669;28;20819;-80
2021/11/22 03:00:44;;;;;;;4.37;2.87;;;5.20;98.30;;;;;;4196641;28;20478;-80
2021/11/22 03:02:48;;;;;;;5.40;3.10;;;5.20;98.30;;;;;;4198539;28;20882;-80
2021/11/22 03:04:52;;;;;;;4.20;2.93;;;5.20;98.30;;;;;;4198957;28;20433;-80
2021/11/22 03:06:55;;;;;;;4.13;3.10;;;5.30;98.30;;;;;;4208371;28;20472;-80
2021/11/22 03:08:58;;;;;;;4.30;2.53;;;5.30;98.30;;;;;;4205244;28;20541;-80
2021/11/22 03:11:02;;;;;;;6.80;3.10;;;5.20;98.30;;;;;;4206528;28;20492;-80
2021/11/22 03:13:05;;;;;;;4.13;2.90;;;5.20;98.30;;;;;;4203045;28;20485;-80
2021/11/22 03:15:12;;;;;;;2.80;2.50;;;5.10;98.30;;;;;;4198498;28;20475;-80
2021/11/22 03:17:15;;;;;;;4.77;2.70;;;5.10;98.30;;;;;;4199178;28;20477;-80
2021/11/22 03:19:19;;;;;;;3.90;2.97;;;5.10;98.30;;;;;;4204458;28;20528;-80
2021/11/22 03:21:21;;;;;;;4.13;3.43;;;5.10;98.30;;;;;;4195786;28;20438;-80
2021/11/22 03:23:25;;;;;;;5.60;3.70;;;5.10;98.30;;;;;;4204696;28;20515;-80
2021/11/22 03:25:31;;;;;;;7.13;3.87;;;5.10;98.30;;;;;;4210974;28;20483;-80
2021/11/22 03:27:35;;;;;;;5.47;4.20;;;5.10;98.30;;;;;;4182456;28;20468;-80
2021/11/22 03:29:38;;;;;;;2.70;2.50;;;5.10;98.30;;;;;;4201364;28;20892;-80
2021/11/22 03:31:42;;;;;;;4.63;3.00;;;5.10;98.30;;;;;;4210112;28;20469;-80
2021/11/22 03:33:46;;;;;;;4.30;3.17;;;5.10;98.30;;;;;;4210529;28;20499;-80
2021/11/22 03:35:52;;;;;;;4.00;2.90;;;5.00;98.30;;;;;;4217421;28;20465;-79
2021/11/22 03:37:55;;;;;;;4.43;2.90;;;5.00;98.30;;;;;;4210555;28;20450;-79
2021/11/22 03:39:59;;;;;;;4.33;3.30;;;5.00;98.30;;;;;;4206844;28;20498;-80
2021/11/22 03:42:07;;;;;;;3.77;3.27;;;5.00;98.30;;;;;;4210637;28;20470;-80
2021/11/22 03:44:13;;;;;;;4.63;3.20;;;5.00;98.30;;;;;;4202726;28;20475;-79
2021/11/22 03:46:18;;;;;;;4.43;3.23;;;5.00;98.30;;;;;;4201640;28;20461;-80
2021/11/22 03:48:21;;;;;;;4.43;3.47;;;5.00;98.30;;;;;;4206445;28;20442;-80
2021/11/22 03:50:24;;;;;;;3.43;3.13;;;5.00;98.30;;;;;;4207572;28;20450;-80
2021/11/22 03:52:27;;;;;;;5.80;3.33;;;5.00;98.30;;;;;;4187264;28;20469;-80
2021/11/22 03:54:31;;;;;;;4.13;3.13;;;5.10;98.30;;;;;;4210715;28;20466;-80
2021/11/22 03:56:34;;;;;;;4.23;3.47;;;5.00;98.30;;;;;;4206410;28;21037;-80
2021/11/22 03:58:37;;;;;;;3.37;2.97;;;5.10;98.30;;;;;;4204895;28;20514;-80
2021/11/22 04:00:41;;;;;;;10.53;3.93;;;5.10;98.30;;;;;;4203511;28;20946;-80
2021/11/22 04:02:45;;;;;;;7.90;4.40;;;5.00;98.30;;;;;;4193434;28;20464;-80
2021/11/22 04:04:48;;;;;;;4.00;3.60;;;4.90;98.30;;;;;;4206073;28;20480;-80
2021/11/22 04:06:52;;;;;;;5.17;3.40;;;4.90;98.30;;;;;;4201402;28;20593;-80
2021/11/22 04:08:55;;;;;;;4.40;3.67;;;4.70;98.30;;;;;;4207138;28;20478;-80
2021/11/22 04:10:58;;;;;;;4.20;3.80;;;4.70;98.30;;;;;;4209905;28;20449;-80
2021/11/22 04:13:01;;;;;;;6.73;3.37;;;4.70;98.30;;;;;;4196549;28;20459;-80
2021/11/22 04:15:13;;;;;;;5.30;3.53;;;4.70;98.30;;;;;;4202504;28;20473;-80
2021/11/22 04:17:19;;;;;;;6.10;3.63;;;4.70;98.30;;;;;;4196126;28;20464;-80
2021/11/22 04:19:22;;;;;;;4.73;3.77;;;4.80;98.30;;;;;;4195551;28;20479;-80
2021/11/22 04:21:25;;;;;;;39.20;27.23;;;4.80;98.30;;;;;;4195560;28;20445;-80
2021/11/22 04:23:29;;;;;;;91.53;65.70;;;4.90;98.30;;;;;;4190336;28;20463;-80
2021/11/22 04:25:32;;;;;;;40.93;27.00;;;4.80;98.30;;;;;;4199322;28;20479;-80
2021/11/22 04:27:35;;;;;;;70.43;43.60;;;4.50;98.30;;;;;;4193056;28;20434;-80
2021/11/22 16:40:54;;;;;;;6.70;5.40;;;6.90;98.30;;;;;;5026850;22;21627;-80
2021/11/22 16:42:57;;;;;;;7.80;5.17;;;6.80;98.30;;;;;;4144097;28;20477;-80
2021/11/22 16:45:00;;;;;;;7.27;5.60;;;6.80;98.30;;;;;;4144686;28;20973;-81
2021/11/22 16:47:07;;;;;;;8.13;5.80;;;6.70;98.30;;;;;;4148683;28;20454;-81
2021/11/22 16:49:11;;;;;;;7.70;5.97;;;6.60;98.30;;;;;;4148480;28;20498;-80
2021/11/22 16:51:39;;;;;;;7.57;6.10;;;6.50;98.30;;;;;;4143859;28;20529;-83
2021/11/22 16:53:42;;;;;;;10.37;7.20;;;6.50;98.30;;;;;;4130524;28;20490;-80
2021/11/22 16:55:45;;;;;;;9.43;6.83;;;6.50;98.30;;;;;;4135649;28;20805;-81
2021/11/22 16:57:51;;;;;;;9.93;7.07;;;6.50;98.30;;;;;;4131396;28;21045;-81
2021/11/22 16:59:54;;;;;;;12.93;9.60;;;6.40;98.30;;;;;;4122841;28;20452;-83
2021/11/22 17:01:57;;;;;;;11.07;9.10;;;6.40;98.30;;;;;;4130354;28;20500;-80
2021/11/22 17:04:01;;;;;;;13.90;10.97;;;6.40;98.30;;;;;;4135458;28;20875;-83
2021/11/22 17:06:04;;;;;;;8.77;7.70;;;6.50;98.30;;;;;;4135103;28;20445;-81
2021/11/22 17:08:07;;;;;;;19.47;13.17;;;6.50;98.30;;;;;;4129665;28;20468;-81
2021/11/22 17:10:14;;;;;;;15.10;11.47;;;6.40;98.30;;;;;;4134213;28;20564;-83
2021/11/22 17:12:17;;;;;;;31.73;22.83;;;6.50;98.30;;;;;;4134338;28;20477;-81
2021/11/22 17:14:21;;;;;;;11.17;8.73;;;6.70;98.30;;;;;;4134280;28;20468;-83
2021/11/22 17:16:24;;;;;;;9.50;8.23;;;6.60;98.30;;;;;;4132727;28;20560;-83
2021/11/22 17:18:28;;;;;;;9.40;8.27;;;6.50;98.30;;;;;;4126257;28;20454;-80
2021/11/22 17:20:31;;;;;;;15.93;10.33;;;6.50;98.30;;;;;;4134549;28;20461;-82
2021/11/22 17:22:34;;;;;;;12.73;9.57;;;6.50;98.30;;;;;;4134793;28;20442;-82
2021/11/22 17:24:38;;;;;;;7.90;7.00;;;6.40;98.30;;;;;;4135089;28;20479;-82
2021/11/22 17:26:41;;;;;;;11.00;8.10;;;6.40;98.30;;;;;;4134444;28;20519;-82
2021/11/22 17:28:45;;;;;;;10.93;8.53;;;6.40;98.30;;;;;;4134739;28;20475;-81
2021/11/22 17:30:49;;;;;;;12.60;8.33;;;6.30;98.30;;;;;;4133344;28;20495;-82
2021/11/22 17:32:52;;;;;;;10.07;6.30;;;6.20;98.30;;;;;;4134085;28;20446;-83
2021/11/22 17:34:55;;;;;;;5.93;5.00;;;6.20;98.30;;;;;;4133983;28;20859;-83
2021/11/22 17:36:58;;;;;;;7.53;5.60;;;6.10;98.30;;;;;;4133033;28;20446;-82
2021/11/22 17:39:01;;;;;;;8.90;6.40;;;6.00;98.30;;;;;;4133230;28;20460;-81
2021/11/22 17:41:04;;;;;;;7.20;6.00;;;6.00;98.30;;;;;;4131667;28;21234;-82
2021/11/22 17:43:07;;;;;;;7.60;5.70;;;5.90;98.30;;;;;;4127799;28;20923;-81
2021/11/22 17:45:13;;;;;;;8.80;5.00;;;5.90;98.30;;;;;;4131470;28;20483;-83
2021/11/22 17:47:18;;;;;;;7.80;6.07;;;5.90;98.30;;;;;;4132443;28;20988;-82
2021/11/22 17:49:21;;;;;;;6.50;5.50;;;5.80;98.30;;;;;;4133233;28;20474;-82
2021/11/22 17:51:26;;;;;;;9.70;6.37;;;5.80;98.30;;;;;;4129405;28;20480;-82
2021/11/22 17:53:29;;;;;;;8.23;5.77;;;5.80;98.30;;;;;;4133288;28;20464;-82
2021/11/22 17:55:32;;;;;;;9.13;5.77;;;5.70;98.30;;;;;;4132821;28;20468;-82
2021/11/22 17:57:35;;;;;;;8.70;5.03;;;5.70;98.30;;;;;;4133319;28;20438;-81
2021/11/22 17:59:42;;;;;;;10.77;5.80;;;5.70;98.30;;;;;;4132000;28;20490;-82
2021/11/22 18:01:47;;;;;;;8.23;5.77;;;5.70;98.30;;;;;;4133227;28;21106;-82
2021/11/22 18:03:53;;;;;;;10.43;5.57;;;5.70;98.30;;;;;;4132985;28;20555;-82
2021/11/22 18:05:56;;;;;;;8.93;6.10;;;5.70;98.30;;;;;;4131355;28;20439;-82
2021/11/22 18:07:59;;;;;;;12.50;5.47;;;5.60;98.30;;;;;;4133729;28;20773;-83
2021/11/22 18:10:02;;;;;;;12.30;7.53;;;5.60;98.30;;;;;;4133506;28;20813;-82
2021/11/22 18:12:06;;;;;;;11.07;7.37;;;5.60;98.30;;;;;;4132869;28;20827;-82
2021/11/22 18:14:09;;;;;;;10.93;7.23;;;5.60;98.30;;;;;;4131453;28;20471;-82
2021/11/22 18:16:12;;;;;;;9.43;7.70;;;5.50;98.30;;;;;;4126923;28;20453;-82
2021/11/22 18:18:15;;;;;;;9.60;6.47;;;5.50;98.30;;;;;;4132135;28;20470;-81
2021/11/22 18:20:20;;;;;;;8.27;7.17;;;5.50;98.30;;;;;;4131501;28;20909;-81
2021/11/22 18:22:23;;;;;;;10.90;6.97;;;5.60;98.30;;;;;;4132515;28;20446;-82
2021/11/22 18:24:26;;;;;;;10.87;7.30;;;5.60;98.30;;;;;;4123718;28;20559;-82
2021/11/22 18:26:29;;;;;;;8.13;6.70;;;5.60;98.30;;;;;;4132892;28;20450;-82
2021/11/22 18:28:34;;;;;;;10.27;6.80;;;5.70;98.30;;;;;;4132784;28;20468;-83
2021/11/22 18:30:38;;;;;;;8.00;7.20;;;5.70;98.30;;;;;;4124601;28;20491;-83
2021/11/22 18:32:44;;;;;;;14.50;6.90;;;5.70;98.30;;;;;;4133475;28;20472;-83
2021/11/22 18:34:47;;;;;;;9.30;7.60;;;5.70;98.30;;;;;;4132472;28;20479;-83
2021/11/22 18:36:51;;;;;;;8.67;6.40;;;5.60;98.30;;;;;;4133174;28;20475;-81
2021/11/22 18:38:54;;;;;;;10.00;7.30;;;5.60;98.30;;;;;;4133414;28;20442;-82
2021/11/22 18:40:58;;;;;;;9.60;6.13;;;5.60;98.30;;;;;;4130970;28;20882;-83
2021/11/22 18:43:01;;;;;;;12.40;6.80;;;5.60;98.30;;;;;;4133027;28;20474;-82
2021/11/22 18:45:06;;;;;;;9.00;6.07;;;5.60;98.30;;;;;;4133323;28;20468;-83
2021/11/22 18:47:09;;;;;;;9.10;6.83;;;5.60;98.30;;;;;;4132699;28;20451;-82
2021/11/22 18:49:12;;;;;;;7.70;6.30;;;5.60;98.30;;;;;;4132096;28;20558;-83
2021/11/22 18:51:15;;;;;;;10.13;7.30;;;5.60;98.30;;;;;;4131557;28;20496;-82
2021/11/22 18:53:19;;;;;;;7.33;6.60;;;5.60;98.30;;;;;;4132562;28;20872;-82
2021/11/22 18:55:23;;;;;;;11.87;7.53;;;5.50;98.30;;;;;;4133364;28;20816;-82
2021/11/22 18:57:26;;;;;;;7.93;7.10;;;5.50;98.30;;;;;;4131977;28;20468;-82
2021/11/22 18:59:29;;;;;;;12.63;7.00;;;5.50;98.30;;;;;;4132352;28;20467;-83
2021/11/22 19:01:33;;;;;;;10.40;8.10;;;5.50;98.30;;;;;;4132362;28;20883;-81
2021/11/22 19:03:36;;;;;;;9.43;7.50;;;5.50;98.30;;;;;;4126420;28;20537;-82
2021/11/22 19:05:40;;;;;;;9.30;6.87;;;5.50;98.30;;;;;;4132701;28;20442;-83
2021/11/22 19:07:46;;;;;;;9.17;6.47;;;5.40;98.30;;;;;;4126486;28;20439;-82
2021/11/22 19:09:50;;;;;;;12.70;7.50;;;5.40;98.30;;;;;;4128372;28;20466;-81
2021/11/22 19:11:53;;;;;;;8.40;7.13;;;5.40;98.30;;;;;;4133444;28;20509;-82
2021/11/22 19:13:56;;;;;;;9.07;7.07;;;5.40;98.30;;;;;;4132929;28;20438;-83
2021/11/22 19:16:00;;;;;;;9.57;6.53;;;5.40;98.30;;;;;;4131992;28;20478;-83
2021/11/22 19:18:04;;;;;;;10.23;6.80;;;5.30;98.30;;;;;;4132450;28;20445;-83
2021/11/22 19:20:09;;;;;;;8.93;6.13;;;5.30;98.30;;;;;;4126945;28;20595;-81
2021/11/22 19:22:12;;;;;;;10.57;6.37;;;5.30;98.30;;;;;;4133150;28;20533;-82
2021/11/22 19:24:18;;;;;;;11.63;7.70;;;5.30;98.30;;;;;;4132406;28;20514;-81
2021/11/22 19:26:22;;;;;;;9.13;8.10;;;5.30;98.30;;;;;;4133078;28;20452;-83
2021/11/22 19:28:26;;;;;;;9.97;6.17;;;5.20;98.30;;;;;;4132795;28;20462;-82
2021/11/22 19:30:30;;;;;;;9.77;6.83;;;5.20;98.30;;;;;;4125704;28;20449;-84
2021/11/22 19:32:35;;;;;;;9.53;7.33;;;5.20;98.30;;;;;;4132894;28;20467;-81
2021/11/22 19:34:38;;;;;;;9.47;7.17;;;5.20;98.30;;;;;;4131668;28;20898;-82
2021/11/22 19:36:41;;;;;;;8.60;6.80;;;5.10;98.30;;;;;;4132712;28;20486;-81
2021/11/22 19:38:45;;;;;;;8.17;6.30;;;5.10;98.30;;;;;;4131935;28;20911;-82
2021/11/22 19:40:48;;;;;;;9.10;6.43;;;5.10;98.30;;;;;;4132865;28;20518;-82
2021/11/22 19:42:54;;;;;;;8.77;6.60;;;5.10;98.30;;;;;;4133236;28;20771;-82
2021/11/22 19:44:57;;;;;;;9.93;6.27;;;5.10;98.30;;;;;;4132268;28;20476;-83
2021/11/22 19:47:02;;;;;;;10.20;6.63;;;5.10;98.30;;;;;;4130910;28;20471;-82
2021/11/22 19:49:06;;;;;;;11.33;6.80;;;5.10;98.30;;;;;;4125775;28;20519;-84
2021/11/22 19:51:09;;;;;;;10.20;6.50;;;5.10;98.30;;;;;;4126220;28;20627;-82
2021/11/22 19:53:12;;;;;;;10.50;6.33;;;5.10;98.30;;;;;;4129238;28;21058;-83
2021/11/22 19:55:16;;;;;;;8.83;5.97;;;5.10;98.30;;;;;;4129714;28;20450;-82
2021/11/22 19:57:21;;;;;;;8.70;6.67;;;5.00;98.30;;;;;;4129769;28;20476;-82
2021/11/22 19:59:29;;;;;;;7.70;6.63;;;5.00;98.30;;;;;;4132863;28;20446;-82
2021/11/22 20:01:48;;;;;;;9.13;6.60;;;5.10;98.30;;;;;;4133352;28;20505;-81
2021/11/22 20:03:53;;;;;;;9.90;7.83;;;5.10;98.30;;;;;;4128844;28;20426;-84
2021/11/22 20:05:56;;;;;;;10.00;7.07;;;5.10;98.30;;;;;;4132612;28;20463;-84
2021/11/22 20:08:00;;;;;;;7.77;6.50;;;5.10;98.30;;;;;;4132503;28;20434;-84
2021/11/22 20:10:06;;;;;;;9.60;7.50;;;5.10;98.30;;;;;;4131757;28;20484;-85
2021/11/22 20:12:10;;;;;;;7.70;6.10;;;5.10;98.30;;;;;;4132351;28;20483;-83
2021/11/22 20:14:14;;;;;;;9.03;7.00;;;5.10;98.30;;;;;;4129875;28;20463;-84
2021/11/22 20:16:20;;;;;;;10.87;6.67;;;5.20;98.30;;;;;;4132576;28;20467;-83
2021/11/22 20:18:23;;;;;;;8.70;6.80;;;5.20;98.30;;;;;;4131993;28;20471;-84
2021/11/22 20:20:27;;;;;;;9.67;6.50;;;5.20;98.30;;;;;;4123914;28;20510;-84
2021/11/22 20:22:30;;;;;;;10.17;6.90;;;5.20;98.30;;;;;;4132818;28;20449;-84
2021/11/22 20:24:33;;;;;;;8.80;6.23;;;5.20;98.30;;;;;;4132235;28;20476;-83
2021/11/22 20:26:38;;;;;;;10.50;6.23;;;5.20;98.30;;;;;;4122714;28;20439;-84
2021/11/22 20:28:47;;;;;;;7.53;6.50;;;5.30;98.30;;;;;;4135473;28;20468;-83
2021/11/22 20:30:50;;;;;;;8.90;6.50;;;5.30;98.30;;;;;;4134889;28;20495;-84
2021/11/22 20:32:56;;;;;;;7.83;6.70;;;5.30;98.30;;;;;;4135215;28;20506;-84
2021/11/22 20:34:59;;;;;;;9.20;6.00;;;5.30;98.30;;;;;;4135521;28;20930;-84
2021/11/22 20:37:02;;;;;;;12.33;7.07;;;5.30;98.30;;;;;;4135057;28;20452;-83
2021/11/22 20:39:06;;;;;;;7.00;6.30;;;5.30;98.30;;;;;;4134277;28;20463;-84
2021/11/22 20:41:11;;;;;;;7.70;6.13;;;5.30;98.30;;;;;;4134546;28;20503;-84
2021/11/22 20:43:14;;;;;;;10.63;6.07;;;5.40;98.30;;;;;;4135684;28;20446;-83
2021/11/22 20:45:18;;;;;;;7.93;6.43;;;5.40;98.30;;;;;;4134442;28;20854;-83
2021/11/22 20:47:21;;;;;;;12.03;6.17;;;5.40;98.30;;;;;;4132211;28;20448;-84
2021/11/22 20:49:26;;;;;;;7.00;5.93;;;5.30;98.30;;;;;;4131314;28;20488;-83
2021/11/22 20:51:29;;;;;;;10.90;5.60;;;5.30;98.30;;;;;;4117127;28;20865;-84
2021/11/22 20:53:33;;;;;;;6.93;6.20;;;5.30;98.30;;;;;;4131841;28;20442;-84
2021/11/22 20:55:36;;;;;;;10.93;6.40;;;5.30;98.30;;;;;;4133409;28;20477;-84
2021/11/22 20:57:39;;;;;;;8.03;6.20;;;5.30;98.30;;;;;;4132719;28;20439;-84
2021/11/22 20:59:42;;;;;;;9.90;6.53;;;5.30;98.30;;;;;;4131757;28;20506;-84
2021/11/22 21:01:48;;;;;;;11.87;6.37;;;5.30;98.30;;;;;;4126102;28;20462;-85
2021/11/22 21:03:52;;;;;;;8.30;6.70;;;5.30;98.30;;;;;;4132625;28;20478;-85
2021/11/22 21:05:56;;;;;;;10.53;6.67;;;5.30;98.30;;;;;;4133451;28;20810;-83
2021/11/22 21:07:59;;;;;;;12.30;6.30;;;5.30;98.30;;;;;;4131561;28;20497;-84
2021/11/22 21:10:02;;;;;;;8.50;6.10;;;5.30;98.30;;;;;;4134058;28;20466;-83
2021/11/22 21:12:06;;;;;;;10.17;6.47;;;5.30;98.30;;;;;;4127786;28;20504;-84
2021/11/22 21:14:09;;;;;;;12.53;7.17;;;5.30;98.30;;;;;;4134998;28;20452;-84
2021/11/22 21:16:12;;;;;;;11.53;6.57;;;5.30;98.30;;;;;;4130020;28;20443;-84
2021/11/22 21:18:15;;;;;;;7.50;6.50;;;5.30;98.30;;;;;;4133161;28;20483;-84
2021/11/22 21:20:18;;;;;;;12.10;5.90;;;5.30;98.30;;;;;;4134263;28;20479;-81
2021/11/22 21:22:22;;;;;;;7.30;6.30;;;5.30;98.30;;;;;;4131486;28;20840;-81
2021/11/22 21:24:25;;;;;;;9.20;5.90;;;5.30;98.30;;;;;;4132033;28;20494;-84
2021/11/22 21:26:28;;;;;;;10.13;6.23;;;5.30;98.30;;;;;;4132039;28;20495;-80
2021/11/22 21:28:32;;;;;;;7.00;5.80;;;5.30;98.30;;;;;;4131882;28;20946;-82
2021/11/22 21:30:36;;;;;;;10.30;6.60;;;5.30;98.30;;;;;;4130201;28;20521;-82
2021/11/22 21:32:40;;;;;;;6.90;5.70;;;5.30;98.30;;;;;;4131883;28;20441;-81
2021/11/22 21:34:44;;;;;;;9.03;5.80;;;5.20;98.30;;;;;;4131485;28;20483;-81
2021/11/22 21:36:50;;;;;;;6.73;5.27;;;5.20;98.30;;;;;;4130914;28;20461;-81
2021/11/22 21:38:54;;;;;;;8.93;5.77;;;5.20;98.30;;;;;;4133262;28;20471;-82
2021/11/22 21:40:57;;;;;;;12.83;5.40;;;5.30;98.30;;;;;;4132663;28;20529;-82
2021/11/22 21:43:01;;;;;;;6.50;5.80;;;5.30;98.30;;;;;;4134861;28;20974;-82
2021/11/22 21:45:05;;;;;;;9.30;5.60;;;5.30;98.30;;;;;;4133720;28;20879;-81
2021/11/22 21:47:09;;;;;;;7.80;5.87;;;5.30;98.30;;;;;;4134564;28;20475;-81
2021/11/22 21:49:12;;;;;;;8.33;6.23;;;5.30;98.30;;;;;;4133733;28;20883;-83
2021/11/22 21:51:15;;;;;;;7.73;5.40;;;5.30;98.30;;;;;;4130024;28;20979;-82
2021/11/22 21:53:18;;;;;;;8.40;5.23;;;5.40;98.30;;;;;;4134383;28;20832;-81
2021/11/22 21:55:24;;;;;;;7.13;6.03;;;5.40;98.30;;;;;;4133566;28;20496;-83
2021/11/22 21:57:27;;;;;;;7.60;5.93;;;5.40;98.30;;;;;;4126569;28;20474;-83
2021/11/22 21:59:31;;;;;;;8.83;5.97;;;5.40;98.30;;;;;;4134598;28;20450;-82
2021/11/22 22:01:36;;;;;;;9.67;5.40;;;5.50;98.30;;;;;;4132560;28;20495;-82
2021/11/22 22:03:40;;;;;;;6.80;5.57;;;5.50;98.30;;;;;;4134626;28;20481;-81
2021/11/22 22:05:43;;;;;;;10.00;5.40;;;5.50;98.30;;;;;;4133521;28;20824;-83
2021/11/22 22:07:49;;;;;;;10.07;6.03;;;5.50;98.30;;;;;;4133587;28;20450;-82
2021/11/22 22:09:52;;;;;;;11.37;5.80;;;5.60;98.30;;;;;;4133062;28;20450;-82
2021/11/22 22:11:57;;;;;;;7.90;5.43;;;5.60;98.30;;;;;;4133005;28;20470;-82
2021/11/22 22:14:01;;;;;;;8.87;5.90;;;5.60;98.30;;;;;;4134141;28;20471;-82
2021/11/22 22:16:04;;;;;;;10.30;4.80;;;5.70;98.30;;;;;;4132581;28;21057;-82
2021/11/22 22:18:12;;;;;;;11.10;6.43;;;5.70;98.30;;;;;;4127938;28;20479;-82
2021/11/22 22:20:15;;;;;;;5.97;4.90;;;5.70;98.30;;;;;;4130603;28;20471;-82
2021/11/22 22:22:18;;;;;;;10.43;5.20;;;5.70;98.30;;;;;;4128609;28;20930;-82
2021/11/22 22:24:21;;;;;;;9.27;4.90;;;5.80;98.30;;;;;;4134663;28;20500;-81
2021/11/22 22:26:26;;;;;;;9.30;5.70;;;5.80;98.30;;;;;;4140610;28;20476;-81
2021/11/22 22:28:31;;;;;;;7.47;4.83;;;5.80;98.30;;;;;;4136494;28;20443;-80
2021/11/22 22:30:34;;;;;;;9.37;5.37;;;5.90;98.30;;;;;;4135505;28;20489;-80
2021/11/22 22:32:37;;;;;;;9.33;5.50;;;5.90;98.30;;;;;;4130223;28;20494;-82
2021/11/22 22:34:40;;;;;;;7.10;4.70;;;5.90;98.30;;;;;;4131112;28;20564;-81
2021/11/22 22:36:44;;;;;;;7.63;4.90;;;5.90;98.30;;;;;;4141029;28;20474;-82
2021/11/22 22:38:47;;;;;;;10.93;5.17;;;5.90;98.30;;;;;;4141842;28;20467;-81
2021/11/22 22:40:51;;;;;;;8.00;5.10;;;6.00;98.30;;;;;;4155875;22;20468;-78
2021/11/22 22:42:54;;;;;;;7.67;5.17;;;6.00;98.30;;;;;;4162148;28;21047;-80
2021/11/22 22:44:59;;;;;;;8.00;5.30;;;6.00;98.30;;;;;;4164583;28;20870;-78
2021/11/22 22:47:02;;;;;;;6.50;4.93;;;6.00;98.30;;;;;;4164319;28;20439;-81
2021/11/22 22:49:05;;;;;;;9.73;5.27;;;6.00;98.30;;;;;;4165361;28;20444;-78
2021/11/22 22:51:08;;;;;;;8.10;5.33;;;6.10;98.30;;;;;;4163173;28;20492;-78
2021/11/22 22:53:11;;;;;;;13.93;5.07;;;6.10;98.30;;;;;;4159572;28;20436;-79
2021/11/22 22:55:34;;;;;;;8.87;5.57;;;6.10;98.30;;;;;;4161436;28;20453;-78
2021/11/22 22:57:37;;;;;;;7.50;5.13;;;6.10;98.30;;;;;;4165052;28;20451;-79
2021/11/22 22:59:40;;;;;;;14.13;6.07;;;6.10;98.30;;;;;;4164976;28;20864;-79
2021/11/22 23:01:45;;;;;;;12.80;5.30;;;6.20;98.30;;;;;;4158763;28;20855;-79
2021/11/22 23:03:48;;;;;;;9.80;5.47;;;6.20;98.30;;;;;;4165141;28;20516;-80